Time;durP1;ratioP1;P1;durP2;ratioP2;P2;SDS_P1;SDS_P2;PMS_P1;PMS_P2;Temp;Humidity;BMP_temperature;BMP_pressure;BME280_temperature;BME280_humidity;BME280_pressure;Samples;Min_cycle;Max_cycle;Signal;HPM_P1;HPM_P2
2022/02/18 00:02:19;;;;;;;5.08;3.45;;;;;;;6.23;81.12;97344.73;1645225;87;21046;-76
2022/02/18 00:04:46;;;;;;;3.83;3.47;;;;;;;6.19;81.27;97352.23;1634246;86;21169;-76
2022/02/18 00:07:12;;;;;;;4.60;3.37;;;;;;;6.16;81.48;97351.44;1644943;87;21052;-76
2022/02/18 00:09:40;;;;;;;6.10;2.95;;;;;;;6.16;81.67;97344.23;1618341;88;20988;-74
2022/02/18 00:12:07;;;;;;;5.03;3.10;;;;;;;6.16;81.75;97358.91;1618479;88;21120;-74
2022/02/18 00:14:34;;;;;;;4.83;3.00;;;;;;;6.17;81.86;97349.83;1602108;87;21055;-77
2022/02/18 00:17:02;;;;;;;4.53;4.10;;;;;;;6.17;81.95;97349.03;1662335;86;21941;-79
2022/02/18 00:19:29;;;;;;;3.98;2.58;;;;;;;6.14;82.16;97351.17;1658922;85;21001;-77
2022/02/18 00:21:55;;;;;;;4.03;2.90;;;;;;;6.13;82.43;97355.47;1644968;87;21010;-76
2022/02/18 00:24:22;;;;;;;4.72;3.10;;;;;;;6.09;82.83;97356.55;1651579;85;21043;-75
2022/02/18 00:26:48;;;;;;;4.15;3.40;;;;;;;6.07;83.12;97360.05;1671144;85;21066;-77
2022/02/18 00:29:15;;;;;;;3.70;2.80;;;;;;;6.05;83.50;97364.84;1657834;86;21144;-75
2022/02/18 00:31:43;;;;;;;4.22;3.10;;;;;;;6.08;83.96;97368.85;1638870;86;37608;-80
2022/02/18 00:34:13;;;;;;;4.35;3.10;;;;;;;6.06;84.27;97368.31;1639302;86;21046;-77
2022/02/18 00:36:39;;;;;;;4.35;3.80;;;;;;;6.04;84.72;97367.25;1648189;85;21043;-79
2022/02/18 00:39:06;;;;;;;4.22;3.02;;;;;;;6.00;85.15;97362.22;1690524;83;21595;-81
2022/02/18 00:41:33;;;;;;;3.58;3.00;;;;;;;5.96;85.55;97373.18;1710839;83;21226;-77
2022/02/18 00:43:59;;;;;;;7.67;2.85;;;;;;;5.93;86.11;97361.74;1709937;83;21050;-77
2022/02/18 00:46:29;;;;;;;5.08;3.95;;;;;;;5.91;86.52;97369.21;1682123;84;21488;-78
2022/02/18 00:48:56;;;;;;;3.70;2.83;;;;;;;5.90;87.01;97372.17;1689968;83;20978;-76
2022/02/18 00:51:22;;;;;;;3.65;2.83;;;;;;;5.89;87.35;97379.37;1710928;83;21106;-76
2022/02/18 00:53:48;;;;;;;3.65;3.05;;;;;;;5.87;87.86;97398.84;1710870;83;21759;-76
2022/02/18 00:56:15;;;;;;;3.87;2.90;;;;;;;5.85;88.12;97386.84;1682913;83;21066;-75
2022/02/18 00:58:42;;;;;;;2.90;2.60;;;;;;;5.83;88.61;97386.31;1686936;83;21047;-73
2022/02/18 01:01:08;;;;;;;4.60;3.00;;;;;;;5.81;89.17;97377.77;1710481;83;21501;-79
2022/02/18 01:03:35;;;;;;;4.42;2.87;;;;;;;5.76;89.72;97379.94;1702127;83;21063;-76
2022/02/18 01:06:02;;;;;;;3.58;3.12;;;;;;;5.76;90.04;97381.80;1700723;84;21144;-76
2022/02/18 01:08:29;;;;;;;4.65;2.92;;;;;;;5.76;90.46;97393.80;1697339;83;21035;-77
2022/02/18 01:10:55;;;;;;;3.77;2.80;;;;;;;5.76;90.56;97394.60;1710792;83;21130;-79
2022/02/18 01:13:23;;;;;;;3.47;2.75;;;;;;;5.76;90.71;97391.13;1710801;83;21043;-76
2022/02/18 01:15:49;;;;;;;3.65;3.25;;;;;;;5.75;90.99;97405.56;1688867;83;21011;-75
2022/02/18 01:18:20;;;;;;;3.50;3.20;;;;;;;5.73;91.22;97405.02;1694218;84;21001;-76
2022/02/18 01:20:45;;;;;;;4.90;3.67;;;;;;;5.72;91.50;97409.56;1682600;83;20994;-76
2022/02/18 01:23:12;;;;;;;5.65;3.40;;;;;;;5.71;91.63;97414.63;1682321;85;21011;-75
2022/02/18 01:25:38;;;;;;;5.05;3.33;;;;;;;5.70;91.81;97414.39;1679524;83;21042;-75
2022/02/18 01:28:05;;;;;;;4.60;3.12;;;;;;;5.66;92.13;97426.11;1682147;85;21031;-78
2022/02/18 01:30:33;;;;;;;5.53;3.02;;;;;;;5.62;92.43;97415.73;1707089;83;21227;-79
2022/02/18 01:33:00;;;;;;;4.80;3.58;;;;;;;5.61;92.58;97440.02;1685969;83;20995;-78
2022/02/18 01:35:27;;;;;;;5.28;3.27;;;;;;;5.63;92.75;97444.53;1688156;84;21514;-80
2022/02/18 01:37:54;;;;;;;3.87;3.22;;;;;;;5.64;92.90;97444.27;1704009;83;21044;-82
2022/02/18 01:40:22;;;;;;;3.60;3.20;;;;;;;5.63;92.99;97447.20;1687247;83;22305;-77
2022/02/18 01:42:49;;;;;;;2.60;2.37;;;;;;;5.62;93.02;97454.92;1682395;85;21867;-82
2022/02/18 01:45:16;;;;;;;2.85;2.47;;;;;;;5.63;93.12;97452.53;1684554;84;21017;-84
2022/02/18 01:47:43;;;;;;;2.42;2.22;;;;;;;5.62;93.21;97460.26;1682663;85;21556;-87
2022/02/18 01:50:09;;;;;;;2.60;2.40;;;;;;;5.59;93.46;97468.28;1698305;83;20950;-78
2022/02/18 01:52:40;;;;;;;3.20;3.00;;;;;;;5.59;93.59;97476.81;1703915;83;21032;-78
2022/02/18 01:55:10;;;;;;;4.00;2.57;;;;;;;5.55;93.65;97472.56;1692606;83;21208;-82
2022/02/18 01:57:39;;;;;;;4.00;2.52;;;;;;;5.51;93.38;97486.17;1682424;85;21309;-81
2022/02/18 02:00:07;;;;;;;4.62;3.40;;;;;;;5.41;93.75;97486.20;1701803;83;21053;-86
2022/02/18 02:02:36;;;;;;;12.25;2.22;;;;;;;5.37;93.95;97491.02;1710224;83;21039;-80
2022/02/18 02:05:05;;;;;;;4.17;2.67;;;;;;;5.34;94.32;97487.53;1679176;83;21113;-79
2022/02/18 02:07:33;;;;;;;2.42;2.22;;;;;;;5.32;94.86;97493.69;1643648;85;21200;-78
2022/02/18 02:10:01;;;;;;;3.17;2.62;;;;;;;5.28;95.36;97500.86;1695663;83;20928;-86
2022/02/18 02:12:28;;;;;;;3.77;2.42;;;;;;;5.23;95.92;97510.20;1683118;83;20971;-81
2022/02/18 02:14:54;;;;;;;2.37;2.08;;;;;;;5.21;96.39;97514.21;1711063;83;21039;-81
2022/02/18 02:17:23;;;;;;;3.33;2.40;;;;;;;5.18;96.84;97534.18;1659842;84;21089;-81
2022/02/18 02:19:50;;;;;;;2.77;2.58;;;;;;;5.15;97.47;97538.72;1697680;83;21143;-85
2022/02/18 02:22:27;;;;;;;4.22;1.98;;;;;;;5.12;98.38;97579.77;1683124;83;21008;-87
2022/02/18 02:24:54;;;;;;;1.70;1.60;;;;;;;4.97;95.65;97592.53;1710967;83;21530;-84
2022/02/18 02:27:22;;;;;;;2.08;1.87;;;;;;;4.90;94.79;97589.31;1687172;83;20990;-81
2022/02/18 02:29:50;;;;;;;2.08;1.60;;;;;;;4.88;95.17;97594.66;1678187;83;21605;-83
2022/02/18 02:32:16;;;;;;;1.70;1.60;;;;;;;4.78;94.51;97612.22;1677775;84;21300;-82
2022/02/18 02:34:45;;;;;;;3.87;1.67;;;;;;;4.74;94.40;97617.00;1682034;85;21571;-77
2022/02/18 02:37:14;;;;;;;2.05;1.40;;;;;;;4.64;93.92;97612.45;1683544;84;20977;-79
2022/02/18 02:39:40;;;;;;;1.87;1.10;;;;;;;4.57;93.90;97641.16;1694954;83;20998;-75
2022/02/18 02:42:08;;;;;;;1.27;1.17;;;;;;;4.49;93.84;97662.16;1710830;83;20996;-75
2022/02/18 02:44:35;;;;;;;1.05;1.02;;;;;;;4.43;94.06;97641.38;1668739;85;21009;-77
2022/02/18 02:47:04;;;;;;;1.50;1.40;;;;;;;4.36;93.83;97646.93;1683317;84;20951;-86
2022/02/18 02:49:31;;;;;;;1.62;1.52;;;;;;;4.34;93.72;97658.38;1676796;84;21472;-78
2022/02/18 02:51:58;;;;;;;1.27;1.17;;;;;;;4.30;93.75;97650.66;1680461;83;21095;-86
2022/02/18 02:54:25;;;;;;;1.52;1.42;;;;;;;4.28;93.84;97673.23;1670264;85;21014;-81
2022/02/18 02:56:55;;;;;;;1.50;1.40;;;;;;;4.22;93.90;97672.41;1642893;85;21520;-80
2022/02/18 02:59:24;;;;;;;2.17;1.10;;;;;;;4.19;94.07;97668.14;1683369;83;21113;-83
2022/02/18 03:01:51;;;;;;;1.60;1.50;;;;;;;4.14;94.45;97682.73;1711294;83;21552;-79
2022/02/18 03:04:19;;;;;;;1.85;1.37;;;;;;;4.12;94.48;97682.22;1710902;83;21022;-82
2022/02/18 03:06:46;;;;;;;1.62;1.52;;;;;;;4.07;94.57;97690.97;1710980;83;21055;-78
2022/02/18 03:09:13;;;;;;;1.30;1.20;;;;;;;4.02;94.56;97685.61;1685518;83;21052;-83
2022/02/18 03:11:43;;;;;;;1.37;1.27;;;;;;;3.98;94.62;97703.67;1647838;85;20986;-84
2022/02/18 03:14:10;;;;;;;2.27;1.30;;;;;;;3.91;94.69;97711.33;1679050;84;20995;-83
2022/02/18 03:16:39;;;;;;;1.40;1.30;;;;;;;3.87;94.95;97714.23;1675287;84;21050;-81
2022/02/18 03:19:05;;;;;;;2.17;1.92;;;;;;;3.82;95.25;97730.14;1683885;83;21066;-83
2022/02/18 03:21:34;;;;;;;2.15;1.50;;;;;;;3.81;95.63;97730.39;1646878;83;21131;-78
2022/02/18 03:24:01;;;;;;;2.08;1.60;;;;;;;3.81;95.63;97730.39;1645641;85;21561;-78
2022/02/18 03:26:29;;;;;;;1.67;1.57;;;;;;;3.77;95.78;97742.06;1640176;86;21010;-77
2022/02/18 03:29:03;;;;;;;2.15;1.50;;;;;;;3.74;95.92;97759.06;1647822;83;21569;-76
2022/02/18 03:31:47;;;;;;;1.77;1.40;;;;;;;3.70;95.90;97749.44;1709760;83;21547;-78
2022/02/18 03:34:14;;;;;;;2.10;1.70;;;;;;;3.65;95.85;97749.39;1702910;83;21899;-77
2022/02/18 03:36:41;;;;;;;2.25;2.05;;;;;;;3.62;95.81;97769.84;1654905;85;21254;-79
2022/02/18 03:39:09;;;;;;;2.50;2.20;;;;;;;3.61;95.75;97778.05;1665378;83;21086;-76
2022/02/18 03:41:36;;;;;;;1.90;1.75;;;;;;;3.60;95.60;97771.94;1719419;83;21170;-78
2022/02/18 03:44:06;;;;;;;1.67;1.57;;;;;;;3.59;95.30;97776.19;1719430;83;21582;-78
2022/02/18 03:46:34;;;;;;;2.02;1.85;;;;;;;3.58;95.13;97771.92;1691705;83;21098;-75
2022/02/18 03:49:03;;;;;;;2.20;1.52;;;;;;;3.56;95.03;97775.34;1682415;83;20997;-80
2022/02/18 03:51:31;;;;;;;1.92;1.77;;;;;;;3.53;94.74;97795.27;1694444;83;21102;-77
2022/02/18 03:53:59;;;;;;;2.17;1.62;;;;;;;3.48;94.54;97797.87;1638801;86;21075;-77
2022/02/18 03:56:25;;;;;;;1.98;1.82;;;;;;;3.44;94.56;97798.91;1651907;84;21069;-78
2022/02/18 03:58:53;;;;;;;1.60;1.50;;;;;;;3.42;94.60;97793.55;1690971;83;21103;-75
2022/02/18 04:01:20;;;;;;;2.67;1.52;;;;;;;3.41;94.61;97801.24;1719522;83;21505;-79
2022/02/18 04:03:47;;;;;;;1.32;1.27;;;;;;;3.41;94.57;97809.21;1695614;83;21014;-86
2022/02/18 04:06:13;;;;;;;1.35;1.22;;;;;;;3.35;94.51;97816.35;1720734;83;21558;-84
2022/02/18 04:08:42;;;;;;;1.70;1.47;;;;;;;3.35;94.48;97803.59;1719512;83;21027;-81
2022/02/18 04:11:10;;;;;;;2.22;1.90;;;;;;;3.32;94.49;97815.50;1674010;83;21126;-85
2022/02/18 04:13:39;;;;;;;1.47;1.37;;;;;;;3.30;94.53;97815.48;1717117;83;21060;-82
2022/02/18 04:16:06;;;;;;;1.98;1.72;;;;;;;3.28;94.58;97825.55;1695869;83;21034;-83
2022/02/18 04:18:32;;;;;;;2.35;1.65;;;;;;;3.29;94.61;97825.30;1690982;84;21016;-84
2022/02/18 04:21:01;;;;;;;1.70;1.60;;;;;;;3.30;94.53;97846.03;1691586;83;21054;-84
2022/02/18 04:23:44;;;;;;;1.92;1.52;;;;;;;3.30;94.41;97830.91;1691189;84;21126;-85
2022/02/18 04:26:11;;;;;;;1.70;1.60;;;;;;;3.28;94.29;97835.65;1708126;83;21020;-83
2022/02/18 04:28:38;;;;;;;2.00;1.82;;;;;;;3.24;94.27;97845.17;1719133;83;20906;-83
2022/02/18 04:31:04;;;;;;;2.33;1.72;;;;;;;3.21;94.36;97849.66;1704473;83;20986;-80
2022/02/18 04:33:31;;;;;;;2.02;1.82;;;;;;;3.17;94.44;97853.83;1694087;83;20947;-81
2022/02/18 04:35:57;;;;;;;3.25;2.65;;;;;;;3.15;94.46;97865.25;1670315;84;20999;-84
2022/02/18 04:38:23;;;;;;;2.50;2.12;;;;;;;3.16;94.46;97867.38;1692186;84;21046;-82
2022/02/18 04:40:50;;;;;;;2.15;1.98;;;;;;;3.13;94.23;97883.27;1702551;83;21570;-85
2022/02/18 04:43:16;;;;;;;2.12;1.92;;;;;;;3.10;94.02;97884.29;1658542;83;21512;-87
2022/02/18 04:45:42;;;;;;;5.35;2.55;;;;;;;3.10;93.91;97884.29;1696304;83;21275;-87
2022/02/18 04:48:08;;;;;;;4.75;2.72;;;;;;;3.10;93.80;97895.72;1682383;85;21068;-87
2022/02/18 04:50:35;;;;;;;6.47;3.17;;;;;;;3.10;93.71;97903.69;1691140;84;20997;-86
2022/02/18 04:53:01;;;;;;;6.40;3.25;;;;;;;3.10;93.57;97909.00;1702431;83;21021;-87
2022/02/18 04:55:28;;;;;;;3.77;2.87;;;;;;;3.12;93.50;97907.44;1680613;83;21021;-87
2022/02/18 04:57:55;;;;;;;3.95;2.70;;;;;;;3.12;93.30;97912.20;1677976;84;21070;-84
2022/02/18 05:00:21;;;;;;;4.55;3.92;;;;;;;3.09;93.15;97911.38;1685124;83;21013;-88
2022/02/18 05:02:48;;;;;;;2.80;2.60;;;;;;;3.10;93.14;97916.16;1704195;84;21060;-90
2022/02/18 05:05:15;;;;;;;6.25;3.98;;;;;;;3.09;93.17;97928.63;1699188;83;21030;-91
2022/02/18 05:07:43;;;;;;;3.50;2.70;;;;;;;3.09;93.18;97925.97;1682739;85;20932;-88
2022/02/18 05:10:10;;;;;;;4.25;2.58;;;;;;;3.10;93.19;97936.88;1684250;84;20995;-81
2022/02/18 05:12:38;;;;;;;4.15;2.50;;;;;;;3.10;93.17;97942.72;1682707;85;21023;-83
2022/02/18 05:15:07;;;;;;;5.00;2.62;;;;;;;3.09;93.14;97957.84;1682665;83;21635;-82
2022/02/18 05:17:36;;;;;;;4.58;2.33;;;;;;;3.08;93.15;97959.69;1682954;83;21022;-83
2022/02/18 05:20:02;;;;;;;2.02;1.82;;;;;;;3.06;93.26;97959.15;1682216;85;20998;-82
2022/02/18 05:22:30;;;;;;;2.90;1.80;;;;;;;3.06;93.33;97964.98;1656076;85;20999;-82
2022/02/18 05:24:57;;;;;;;2.37;1.90;;;;;;;3.06;93.52;97976.93;1695054;83;21120;-81
2022/02/18 05:27:25;;;;;;;1.92;1.65;;;;;;;3.08;93.62;97983.59;1682516;84;21481;-84
2022/02/18 05:29:51;;;;;;;4.67;2.33;;;;;;;3.07;93.58;97984.63;1676716;85;21108;-81
2022/02/18 05:32:17;;;;;;;2.42;2.17;;;;;;;3.05;93.59;97993.91;1682696;85;21078;-83
2022/02/18 05:34:44;;;;;;;2.30;2.05;;;;;;;3.03;93.69;98001.30;1679367;83;21039;-78
2022/02/18 05:37:12;;;;;;;2.45;2.05;;;;;;;3.04;93.85;98001.58;1683044;83;21013;-79
2022/02/18 05:39:39;;;;;;;2.62;1.98;;;;;;;3.05;93.84;98014.63;1686970;83;21050;-80
2022/02/18 05:42:06;;;;;;;4.00;1.92;;;;;;;3.08;93.91;98019.97;1711528;83;21021;-79
2022/02/18 05:44:32;;;;;;;3.02;1.95;;;;;;;3.10;93.87;98030.35;1706495;83;21708;-77
2022/02/18 05:47:01;;;;;;;3.20;2.77;;;;;;;3.12;93.73;98025.62;1662571;85;20998;-78
2022/02/18 05:49:28;;;;;;;2.40;1.65;;;;;;;3.09;93.64;98029.55;1687742;84;21096;-81
2022/02/18 05:51:55;;;;;;;2.25;1.80;;;;;;;3.11;93.55;98035.44;1687766;84;21056;-79
2022/02/18 05:54:21;;;;;;;2.75;1.90;;;;;;;3.11;93.46;98039.41;1705467;83;20974;-83
2022/02/18 05:56:50;;;;;;;2.15;1.65;;;;;;;3.13;93.19;98046.60;1693109;83;20982;-82
2022/02/18 05:59:18;;;;;;;5.97;2.77;;;;;;;3.18;93.15;98055.17;1700134;84;21034;-83
2022/02/18 06:01:45;;;;;;;3.60;1.92;;;;;;;3.19;92.94;98064.23;1706920;83;21075;-81
2022/02/18 06:04:12;;;;;;;4.00;2.95;;;;;;;3.20;92.82;98053.89;1705277;83;21135;-84
2022/02/18 06:06:41;;;;;;;2.05;1.90;;;;;;;3.20;92.40;98061.05;1714333;83;21519;-79
2022/02/18 06:09:08;;;;;;;3.12;2.33;;;;;;;3.17;92.32;98062.33;1709582;83;21062;-82
2022/02/18 06:11:36;;;;;;;2.27;2.08;;;;;;;3.18;92.28;98076.42;1662979;85;21113;-78
2022/02/18 06:14:03;;;;;;;6.20;3.72;;;;;;;3.17;92.12;98086.23;1687613;85;21123;-81
2022/02/18 06:16:30;;;;;;;4.08;2.22;;;;;;;3.20;92.12;98078.32;1648858;86;21060;-81
2022/02/18 06:18:56;;;;;;;2.10;1.90;;;;;;;3.21;91.82;98094.55;1628343;87;20997;-80
2022/02/18 06:21:23;;;;;;;4.00;3.40;;;;;;;3.20;91.60;98099.05;1665226;86;21025;-80
2022/02/18 06:23:49;;;;;;;2.52;1.87;;;;;;;3.20;91.58;98109.67;1675485;85;21590;-78
2022/02/18 06:26:16;;;;;;;2.02;1.90;;;;;;;3.22;91.59;98113.40;1619744;87;21091;-80
2022/02/18 06:28:42;;;;;;;4.55;3.10;;;;;;;3.25;91.59;98111.61;1645220;86;21040;-82
2022/02/18 06:31:09;;;;;;;4.15;2.50;;;;;;;3.28;91.47;98134.50;1637475;87;21101;-84
2022/02/18 06:33:36;;;;;;;2.62;1.82;;;;;;;3.30;91.11;98135.08;1611157;87;21039;-81
2022/02/18 06:36:03;;;;;;;2.37;1.92;;;;;;;3.29;90.80;98135.31;1639018;87;21592;-80
2022/02/18 06:38:30;;;;;;;2.60;1.62;;;;;;;3.28;90.56;98134.50;1631367;86;21140;-77
2022/02/18 06:40:57;;;;;;;2.15;1.95;;;;;;;3.28;90.50;98138.48;1672084;85;21103;-81
2022/02/18 06:43:23;;;;;;;3.08;2.22;;;;;;;3.29;90.41;98139.30;1673259;85;21095;-79
2022/02/18 06:45:49;;;;;;;1.90;1.80;;;;;;;3.31;90.46;98158.47;1660454;85;21566;-82
2022/02/18 06:48:17;;;;;;;2.33;1.72;;;;;;;3.33;90.35;98159.83;1648874;85;21059;-82
2022/02/18 06:50:44;;;;;;;3.02;2.00;;;;;;;3.33;90.04;98174.95;1635004;85;21251;-80
2022/02/18 06:53:10;;;;;;;2.87;2.30;;;;;;;3.33;89.90;98173.11;1673364;85;21039;-79
2022/02/18 06:55:37;;;;;;;1.80;1.60;;;;;;;3.34;90.04;98177.38;1673298;85;21009;-80
2022/02/18 06:58:04;;;;;;;2.20;1.77;;;;;;;3.35;89.87;98179.52;1673791;85;21036;-79
2022/02/18 07:00:31;;;;;;;4.87;2.72;;;;;;;3.35;89.74;98180.85;1674794;85;21094;-82
2022/02/18 07:02:58;;;;;;;2.77;2.45;;;;;;;3.38;89.74;98181.17;1674181;85;21569;-79
2022/02/18 07:05:25;;;;;;;3.02;2.10;;;;;;;3.38;89.50;98183.02;1647582;85;21021;-82
2022/02/18 07:07:51;;;;;;;3.25;2.15;;;;;;;3.40;89.42;98184.92;1625455;85;21142;-82
2022/02/18 07:10:18;;;;;;;3.10;2.55;;;;;;;3.38;89.27;98177.70;1654563;85;21554;-83
2022/02/18 07:12:44;;;;;;;4.25;2.15;;;;;;;3.38;89.29;98185.16;1647477;86;21108;-84
2022/02/18 07:15:11;;;;;;;4.70;3.87;;;;;;;3.40;88.89;98195.55;1650174;85;21150;-81
2022/02/18 07:17:38;;;;;;;2.47;2.27;;;;;;;3.43;88.71;98214.47;1651398;85;20993;-80
2022/02/18 07:20:06;;;;;;;2.62;2.42;;;;;;;3.45;88.40;98203.61;1674610;85;21013;-79
2022/02/18 07:22:36;;;;;;;3.40;3.02;;;;;;;3.50;88.30;98203.70;1651847;85;20985;-84
2022/02/18 07:25:05;;;;;;;5.92;2.72;;;;;;;3.53;88.18;98212.50;1648839;85;21072;-81
2022/02/18 07:27:32;;;;;;;3.00;1.92;;;;;;;3.56;88.08;98218.66;1630314;85;21467;-80
2022/02/18 07:30:00;;;;;;;3.98;2.10;;;;;;;3.61;87.37;98212.62;1672963;85;21032;-81
2022/02/18 07:32:27;;;;;;;3.37;2.22;;;;;;;3.65;87.10;98225.70;1673022;85;21058;-82
2022/02/18 07:34:53;;;;;;;4.00;2.35;;;;;;;3.72;86.89;98224.52;1673089;85;21293;-81
2022/02/18 07:37:20;;;;;;;2.80;2.42;;;;;;;3.78;86.59;98230.72;1625498;87;21470;-83
2022/02/18 07:39:46;;;;;;;5.72;2.65;;;;;;;3.81;86.10;98232.37;1666487;85;21155;-82
2022/02/18 07:42:14;;;;;;;4.28;2.35;;;;;;;3.86;85.99;98228.98;1663173;85;21655;-84
2022/02/18 07:44:43;;;;;;;2.95;2.15;;;;;;;3.89;85.62;98241.78;1685139;85;21127;-84
2022/02/18 07:47:10;;;;;;;2.62;2.08;;;;;;;3.94;85.37;98253.31;1665647;85;21036;-83
2022/02/18 07:49:36;;;;;;;5.00;2.90;;;;;;;3.99;84.73;98251.25;1636077;86;21036;-90
2022/02/18 07:52:04;;;;;;;2.70;2.22;;;;;;;4.03;84.70;98261.69;1659550;86;21185;-90
2022/02/18 07:54:31;;;;;;;3.27;2.30;;;;;;;4.08;84.59;98247.66;1636106;86;21533;-89
2022/02/18 07:56:58;;;;;;;2.85;2.10;;;;;;;4.09;84.07;98261.24;1661438;85;21500;-88
2022/02/18 07:59:24;;;;;;;3.05;2.45;;;;;;;4.11;84.19;98283.10;1667002;85;21110;-81
2022/02/18 08:01:50;;;;;;;2.67;2.20;;;;;;;4.11;83.72;98257.31;1681964;85;21587;-81
2022/02/18 08:04:16;;;;;;;3.00;2.30;;;;;;;4.16;83.83;98260.05;1686586;85;21102;-83
2022/02/18 08:06:44;;;;;;;3.55;2.55;;;;;;;4.22;83.68;98260.38;1658967;85;21367;-82
2022/02/18 08:09:12;;;;;;;3.77;2.40;;;;;;;4.27;83.57;98261.78;1682974;85;21042;-81
2022/02/18 08:11:40;;;;;;;6.03;2.77;;;;;;;4.29;82.93;98257.04;1670701;85;21568;-70
2022/02/18 08:14:06;;;;;;;3.20;2.40;;;;;;;4.33;82.78;98250.70;1659262;85;21107;-68
2022/02/18 08:16:33;;;;;;;3.40;2.40;;;;;;;4.38;82.96;98253.43;1641842;85;21102;-69
2022/02/18 08:19:00;;;;;;;5.75;3.12;;;;;;;4.46;82.90;98253.00;1627204;87;20991;-69
2022/02/18 08:21:27;;;;;;;4.92;2.80;;;;;;;4.61;82.15;98245.22;1656891;86;21569;-69
2022/02/18 08:23:53;;;;;;;9.15;3.00;;;;;;;4.61;82.15;98245.22;1636298;86;21064;-69
2022/02/18 08:26:21;;;;;;;3.67;2.80;;;;;;;4.76;81.05;98253.41;1659104;85;21063;-69
2022/02/18 08:28:48;;;;;;;4.70;2.52;;;;;;;4.76;81.05;98253.41;1658118;86;21136;-69
2022/02/18 08:31:16;;;;;;;3.85;2.98;;;;;;;4.86;80.93;98253.25;1677662;85;21050;-71
2022/02/18 08:33:43;;;;;;;2.80;2.42;;;;;;;4.92;80.63;98264.25;1671430;85;21067;-70
2022/02/18 08:36:11;;;;;;;3.67;2.70;;;;;;;4.99;80.07;98266.22;1679589;85;21036;-69
2022/02/18 08:38:37;;;;;;;2.35;2.15;;;;;;;5.06;79.90;98276.95;1684357;85;21533;-69
2022/02/18 08:41:03;;;;;;;5.22;2.75;;;;;;;5.14;79.47;98278.36;1657156;85;21098;-71
2022/02/18 08:43:31;;;;;;;3.62;2.40;;;;;;;5.18;78.60;98273.61;1674229;85;21080;-70
2022/02/18 08:45:57;;;;;;;2.70;2.22;;;;;;;5.20;77.99;98278.70;1651908;85;21102;-70
2022/02/18 08:48:23;;;;;;;4.80;2.67;;;;;;;5.21;77.95;98273.13;1655060;85;21568;-71
2022/02/18 08:50:50;;;;;;;4.10;3.00;;;;;;;5.23;78.20;98280.86;1630528;85;21012;-70
2022/02/18 08:53:16;;;;;;;4.95;2.70;;;;;;;5.27;78.09;98285.44;1677993;85;21963;-70
2022/02/18 08:55:43;;;;;;;6.45;4.28;;;;;;;5.30;77.82;98294.81;1618163;87;21070;-71
2022/02/18 08:58:10;;;;;;;8.00;2.87;;;;;;;5.33;77.27;98298.82;1695928;83;21034;-70
2022/02/18 09:00:37;;;;;;;3.72;2.30;;;;;;;5.31;76.99;98303.09;1655121;83;21094;-71
2022/02/18 09:03:04;;;;;;;5.22;2.87;;;;;;;5.30;76.69;98348.64;1711145;83;21379;-69
2022/02/18 09:05:31;;;;;;;3.98;2.85;;;;;;;5.29;76.86;98315.84;1697151;83;21784;-71
2022/02/18 09:08:00;;;;;;;6.85;3.30;;;;;;;5.27;76.63;98338.74;1683067;83;20918;-72
2022/02/18 09:10:28;;;;;;;3.85;2.80;;;;;;;5.23;76.81;98332.30;1670989;84;20907;-72
2022/02/18 09:12:54;;;;;;;4.28;2.98;;;;;;;5.21;77.00;98337.09;1659030;85;21016;-68
2022/02/18 09:15:20;;;;;;;4.42;2.65;;;;;;;5.19;77.20;98334.38;1639998;87;21061;-68
2022/02/18 09:17:54;;;;;;;4.60;2.95;;;;;;;5.21;77.42;98326.44;1624555;87;21244;-69
2022/02/18 09:20:21;;;;;;;8.23;2.98;;;;;;;5.26;77.54;98340.34;1642019;87;21135;-70
2022/02/18 09:22:47;;;;;;;4.75;3.65;;;;;;;5.33;77.50;98342.28;1637091;86;21086;-69
2022/02/18 09:25:14;;;;;;;3.00;2.70;;;;;;;5.41;77.37;98326.39;1642920;86;21038;-70
2022/02/18 09:27:40;;;;;;;4.80;2.92;;;;;;;5.45;77.08;98348.30;1625304;86;21066;-69
2022/02/18 09:30:10;;;;;;;4.65;2.62;;;;;;;5.50;76.54;98344.36;1640014;87;21244;-69
2022/02/18 09:32:37;;;;;;;4.92;2.62;;;;;;;5.49;76.54;98348.08;1650373;84;21069;-69
2022/02/18 09:35:04;;;;;;;4.45;3.60;;;;;;;5.48;76.61;98345.65;1683941;84;21558;-68
2022/02/18 09:37:31;;;;;;;6.17;2.50;;;;;;;5.47;76.82;98338.17;1676624;85;21027;-71
2022/02/18 09:39:57;;;;;;;5.53;3.08;;;;;;;5.46;76.27;98351.25;1685299;83;21567;-69
2022/02/18 09:42:25;;;;;;;3.20;2.80;;;;;;;5.45;76.60;98365.62;1669677;86;21315;-70
2022/02/18 09:44:52;;;;;;;5.97;2.62;;;;;;;5.47;76.49;98356.03;1678906;84;21091;-70
2022/02/18 09:47:18;;;;;;;4.08;2.95;;;;;;;5.49;76.29;98358.74;1693957;84;21180;-72
2022/02/18 09:49:45;;;;;;;4.72;3.05;;;;;;;5.50;76.44;98354.22;1692367;84;20967;-70
2022/02/18 09:52:13;;;;;;;5.80;2.80;;;;;;;5.52;76.58;98356.09;1693565;83;21581;-68
2022/02/18 09:54:39;;;;;;;5.87;3.62;;;;;;;5.54;76.00;98370.80;1694574;83;21038;-73
2022/02/18 09:57:06;;;;;;;4.10;2.80;;;;;;;5.53;75.29;98359.84;1701650;83;21706;-74
2022/02/18 09:59:32;;;;;;;3.95;2.75;;;;;;;5.49;75.47;98376.59;1708350;83;21658;-71
2022/02/18 10:02:05;;;;;;;5.00;2.90;;;;;;;5.49;75.43;98379.27;1694118;84;21022;-71
2022/02/18 10:04:31;;;;;;;5.05;3.22;;;;;;;5.49;75.40;98371.27;1677532;83;21033;-71
2022/02/18 10:07:00;;;;;;;3.98;2.77;;;;;;;5.50;75.49;98368.36;1664164;86;21088;-70
2022/02/18 10:09:42;;;;;;;5.87;2.83;;;;;;;5.53;75.63;98367.84;1642669;86;20998;-77
2022/02/18 10:12:12;;;;;;;6.12;3.12;;;;;;;5.57;75.78;98376.95;1674563;84;21062;-76
2022/02/18 10:15:00;;;;;;;5.42;3.02;;;;;;;5.57;75.12;98378.29;1697989;84;21006;-76
2022/02/18 10:17:40;;;;;;;5.15;3.17;;;;;;;5.57;74.90;98380.14;1698740;83;21058;-76
2022/02/18 10:20:22;;;;;;;4.22;3.12;;;;;;;5.57;74.85;98380.95;1693525;83;21201;-77
2022/02/18 10:23:05;;;;;;;4.08;2.45;;;;;;;5.61;74.51;98387.95;1672524;83;21510;-77
2022/02/18 10:25:35;;;;;;;3.55;2.77;;;;;;;5.66;74.29;98379.45;1710505;83;20965;-76
2022/02/18 10:28:03;;;;;;;3.08;2.33;;;;;;;5.75;73.69;98391.84;1698632;83;21057;-77
2022/02/18 10:30:31;;;;;;;2.80;2.47;;;;;;;5.84;72.90;98398.86;1651674;84;20968;-83
2022/02/18 10:33:01;;;;;;;4.50;2.30;;;;;;;5.89;71.83;98389.61;1698051;84;21036;-83
2022/02/18 10:35:32;;;;;;;2.52;2.25;;;;;;;5.93;71.63;98391.52;1674335;84;21084;-80
2022/02/18 10:37:58;;;;;;;3.27;2.55;;;;;;;5.96;71.20;98404.35;1676821;83;21030;-80
2022/02/18 10:40:25;;;;;;;5.60;2.72;;;;;;;5.96;71.32;98419.03;1700071;83;21003;-82
2022/02/18 10:42:53;;;;;;;2.67;2.30;;;;;;;5.97;71.12;98395.30;1719448;83;21002;-84
2022/02/18 10:45:26;;;;;;;2.45;2.25;;;;;;;5.99;70.21;98410.55;1705920;83;22227;-87
2022/02/18 10:48:09;;;;;;;2.87;2.58;;;;;;;6.01;70.18;98435.62;1690214;83;20980;-83
2022/02/18 10:50:35;;;;;;;2.93;2.20;;;;;;;6.04;70.24;98431.13;1719827;83;21469;-81
2022/02/18 10:53:20;;;;;;;5.35;3.65;;;;;;;6.10;70.05;98415.42;1695070;83;21054;-82
2022/02/18 10:56:01;;;;;;;6.80;2.50;;;;;;;6.12;69.96;98410.66;1719652;83;21043;-76
2022/02/18 10:58:31;;;;;;;3.05;2.47;;;;;;;6.18;70.08;98419.52;1713450;83;21117;-74
2022/02/18 11:01:27;;;;;;;3.60;2.40;;;;;;;6.25;70.03;98427.59;1689801;84;21500;-77
2022/02/18 11:04:01;;;;;;;3.75;2.12;;;;;;;6.28;69.20;98455.14;1690126;84;21566;-78
2022/02/18 11:06:34;;;;;;;6.00;3.30;;;;;;;6.29;68.74;98458.06;1690636;84;20990;-78
2022/02/18 11:09:10;;;;;;;2.42;2.22;;;;;;;6.29;68.77;98421.20;1703361;83;20991;-82
2022/02/18 11:11:41;;;;;;;2.62;2.33;;;;;;;6.33;68.74;98431.13;1719346;83;21428;-79
2022/02/18 11:14:16;;;;;;;2.60;2.40;;;;;;;6.35;67.37;98442.91;1695208;83;20982;-74
2022/02/18 11:16:52;;;;;;;5.28;3.55;;;;;;;6.36;67.25;98427.97;1719485;83;21014;-75
2022/02/18 11:19:17;;;;;;;3.80;2.30;;;;;;;6.40;67.27;98436.27;1703675;83;21022;-76
2022/02/18 11:21:44;;;;;;;4.33;2.72;;;;;;;6.36;66.13;98441.32;1690902;84;21046;-76
2022/02/18 11:24:10;;;;;;;3.33;2.00;;;;;;;6.34;66.17;98451.97;1690854;84;21492;-79
2022/02/18 11:26:38;;;;;;;3.40;2.22;;;;;;;6.33;66.59;98480.52;1690673;84;21089;-77
2022/02/18 11:29:10;;;;;;;4.58;2.30;;;;;;;6.33;66.91;98473.07;1703822;83;20967;-82
2022/02/18 11:31:52;;;;;;;2.47;1.87;;;;;;;6.30;66.05;98449.53;1719884;83;21066;-83
2022/02/18 11:34:38;;;;;;;4.67;2.85;;;;;;;6.26;66.45;98461.25;1694877;83;21046;-79
2022/02/18 11:37:37;;;;;;;4.83;2.12;;;;;;;6.26;66.88;98460.44;1694919;83;21026;-78
2022/02/18 11:40:41;;;;;;;5.35;1.90;;;;;;;6.24;66.53;98472.69;1702867;83;22359;-83
2022/02/18 11:43:33;;;;;;;5.28;2.52;;;;;;;6.22;66.31;98475.35;1698332;83;28413;-74
2022/02/18 11:46:04;;;;;;;2.30;1.92;;;;;;;6.21;66.60;98466.53;1669553;83;20952;-79
2022/02/18 11:48:49;;;;;;;3.27;2.33;;;;;;;6.23;66.87;98469.77;1681173;83;20992;-77